sensor_id;sensor_type;location;lat;lon;timestamp;pressure;altitude;pressure_sealevel;temperature;humidity
2711;BME280;20721;47.402;8.550;2023-04-07T00:00:24;96124;;;11.56;38.72
2711;BME280;20721;47.402;8.550;2023-04-07T00:01:24;96115;;;11.39;38.45
2711;BME280;20721;47.402;8.550;2023-04-07T00:02:24;96113;;;11.40;38.64
2711;BME280;20721;47.402;8.550;2023-04-07T00:03:24;96114;;;11.33;38.87
2711;BME280;20721;47.402;8.550;2023-04-07T00:04:24;96114;;;11.26;39.11
2711;BME280;20721;47.402;8.550;2023-04-07T00:05:24;96112;;;11.03;39.15
2711;BME280;20721;47.402;8.550;2023-04-07T00:06:24;96111;;;10.61;39.59
2711;BME280;20721;47.402;8.550;2023-04-07T00:07:24;96107;;;10.11;40.12
2711;BME280;20721;47.402;8.550;2023-04-07T00:08:24;96115;;;10.13;40.45
2711;BME280;20721;47.402;8.550;2023-04-07T00:09:24;96111;;;10.32;40.43
2711;BME280;20721;47.402;8.550;2023-04-07T00:10:24;96105;;;10.54;40.33
2711;BME280;20721;47.402;8.550;2023-04-07T00:11:24;96106;;;10.73;39.99
2711;BME280;20721;47.402;8.550;2023-04-07T00:12:25;96105;;;10.89;39.63
2711;BME280;20721;47.402;8.550;2023-04-07T00:13:24;96103;;;10.75;39.52
2711;BME280;20721;47.402;8.550;2023-04-07T00:14:24;96099;;;10.66;39.54
2711;BME280;20721;47.402;8.550;2023-04-07T00:15:24;96094;;;10.62;39.65
2711;BME280;20721;47.402;8.550;2023-04-07T00:16:24;96099;;;10.67;39.68
2711;BME280;20721;47.402;8.550;2023-04-07T00:17:24;96094;;;10.76;39.59
2711;BME280;20721;47.402;8.550;2023-04-07T00:18:24;96097;;;10.87;39.41
2711;BME280;20721;47.402;8.550;2023-04-07T00:19:24;96094;;;10.94;39.09
2711;BME280;20721;47.402;8.550;2023-04-07T00:20:24;96088;;;11.12;38.80
2711;BME280;20721;47.402;8.550;2023-04-07T00:21:26;96091;;;11.30;38.61
2711;BME280;20721;47.402;8.550;2023-04-07T00:22:24;96088;;;11.47;38.50
2711;BME280;20721;47.402;8.550;2023-04-07T00:23:24;96086;;;11.61;38.39
2711;BME280;20721;47.402;8.550;2023-04-07T00:24:34;96085;;;11.74;38.24
2711;BME280;20721;47.402;8.550;2023-04-07T00:25:24;96082;;;11.84;37.94
2711;BME280;20721;47.402;8.550;2023-04-07T00:26:30;96081;;;11.93;37.85
2711;BME280;20721;47.402;8.550;2023-04-07T00:27:24;96075;;;12.03;37.71
2711;BME280;20721;47.402;8.550;2023-04-07T00:28:24;96077;;;12.09;37.62
2711;BME280;20721;47.402;8.550;2023-04-07T00:29:24;96076;;;12.16;37.45
2711;BME280;20721;47.402;8.550;2023-04-07T00:30:24;96074;;;12.24;37.03
2711;BME280;20721;47.402;8.550;2023-04-07T00:31:24;96073;;;12.29;37.02
2711;BME280;20721;47.402;8.550;2023-04-07T00:32:24;96074;;;12.33;36.99
2711;BME280;20721;47.402;8.550;2023-04-07T00:33:24;96070;;;12.34;36.92
2711;BME280;20721;47.402;8.550;2023-04-07T00:34:24;96068;;;12.32;36.95
2711;BME280;20721;47.402;8.550;2023-04-07T00:35:24;96066;;;12.33;37.06
2711;BME280;20721;47.402;8.550;2023-04-07T00:36:24;96067;;;12.36;37.06
2711;BME280;20721;47.402;8.550;2023-04-07T00:38:24;96066;;;12.35;37.03
2711;BME280;20721;47.402;8.550;2023-04-07T00:39:26;96066;;;12.37;37.22
2711;BME280;20721;47.402;8.550;2023-04-07T00:41:24;96063;;;12.36;37.17
2711;BME280;20721;47.402;8.550;2023-04-07T00:42:24;96061;;;12.34;37.05
2711;BME280;20721;47.402;8.550;2023-04-07T00:43:24;96061;;;12.35;37.12
2711;BME280;20721;47.402;8.550;2023-04-07T00:44:24;96063;;;12.37;37.18
2711;BME280;20721;47.402;8.550;2023-04-07T00:46:24;96058;;;12.35;37.01
2711;BME280;20721;47.402;8.550;2023-04-07T00:47:24;96056;;;12.34;36.96
2711;BME280;20721;47.402;8.550;2023-04-07T00:48:24;96052;;;12.33;37.03
2711;BME280;20721;47.402;8.550;2023-04-07T00:49:27;96050;;;12.31;37.19
2711;BME280;20721;47.402;8.550;2023-04-07T00:50:24;96049;;;12.29;36.69
2711;BME280;20721;47.402;8.550;2023-04-07T00:51:25;96051;;;12.28;36.62
2711;BME280;20721;47.402;8.550;2023-04-07T00:52:31;96050;;;12.22;36.70
2711;BME280;20721;47.402;8.550;2023-04-07T00:53:24;96043;;;12.19;36.67
2711;BME280;20721;47.402;8.550;2023-04-07T00:56:24;96043;;;12.22;36.37
2711;BME280;20721;47.402;8.550;2023-04-07T00:57:24;96040;;;12.20;36.44
2711;BME280;20721;47.402;8.550;2023-04-07T00:58:24;96042;;;12.23;36.29
2711;BME280;20721;47.402;8.550;2023-04-07T01:00:24;96038;;;12.27;36.59
2711;BME280;20721;47.402;8.550;2023-04-07T01:01:25;96040;;;12.29;36.65
2711;BME280;20721;47.402;8.550;2023-04-07T01:04:25;96033;;;12.24;36.81
2711;BME280;20721;47.402;8.550;2023-04-07T01:05:30;96031;;;12.07;37.14
2711;BME280;20721;47.402;8.550;2023-04-07T01:06:25;96034;;;11.90;37.53
2711;BME280;20721;47.402;8.550;2023-04-07T01:07:26;96035;;;11.69;37.82
2711;BME280;20721;47.402;8.550;2023-04-07T01:08:29;96034;;;11.47;38.26
2711;BME280;20721;47.402;8.550;2023-04-07T01:09:26;96033;;;11.39;38.49
2711;BME280;20721;47.402;8.550;2023-04-07T01:10:26;96035;;;11.32;38.79
2711;BME280;20721;47.402;8.550;2023-04-07T01:11:26;96038;;;11.31;38.69
2711;BME280;20721;47.402;8.550;2023-04-07T01:14:24;96034;;;11.49;39.12
2711;BME280;20721;47.402;8.550;2023-04-07T01:15:24;96031;;;11.31;39.23
2711;BME280;20721;47.402;8.550;2023-04-07T01:17:24;96025;;;11.09;40.12
2711;BME280;20721;47.402;8.550;2023-04-07T01:20:24;96022;;;11.30;39.86
2711;BME280;20721;47.402;8.550;2023-04-07T01:21:25;96020;;;11.39;39.63
2711;BME280;20721;47.402;8.550;2023-04-07T01:22:32;96017;;;11.45;39.45
2711;BME280;20721;47.402;8.550;2023-04-07T01:23:28;96019;;;11.48;39.58
2711;BME280;20721;47.402;8.550;2023-04-07T01:25:26;96021;;;11.40;38.99
2711;BME280;20721;47.402;8.550;2023-04-07T01:26:27;96021;;;11.41;39.06
2711;BME280;20721;47.402;8.550;2023-04-07T01:27:32;96018;;;11.47;39.01
2711;BME280;20721;47.402;8.550;2023-04-07T01:29:27;96017;;;11.51;39.40
2711;BME280;20721;47.402;8.550;2023-04-07T01:30:24;96017;;;11.49;39.52
2711;BME280;20721;47.402;8.550;2023-04-07T01:31:24;96017;;;11.41;39.54
2711;BME280;20721;47.402;8.550;2023-04-07T01:32:26;96013;;;11.38;39.54
2711;BME280;20721;47.402;8.550;2023-04-07T01:34:24;96011;;;11.36;39.65
2711;BME280;20721;47.402;8.550;2023-04-07T01:35:24;96012;;;11.37;39.55
2711;BME280;20721;47.402;8.550;2023-04-07T01:36:25;96016;;;11.04;39.61
2711;BME280;20721;47.402;8.550;2023-04-07T01:37:25;96015;;;10.61;40.15
2711;BME280;20721;47.402;8.550;2023-04-07T01:38:24;96013;;;10.50;40.67
2711;BME280;20721;47.402;8.550;2023-04-07T01:39:25;96015;;;10.37;40.77
2711;BME280;20721;47.402;8.550;2023-04-07T01:40:24;96016;;;10.41;40.98
2711;BME280;20721;47.402;8.550;2023-04-07T01:41:24;96013;;;10.55;41.00
2711;BME280;20721;47.402;8.550;2023-04-07T01:42:24;96012;;;10.66;40.70
2711;BME280;20721;47.402;8.550;2023-04-07T01:43:24;96011;;;10.76;40.43
2711;BME280;20721;47.402;8.550;2023-04-07T01:44:24;96010;;;10.86;40.21
2711;BME280;20721;47.402;8.550;2023-04-07T01:45:24;96013;;;11.00;40.04
2711;BME280;20721;47.402;8.550;2023-04-07T01:46:24;96007;;;11.11;40.06
2711;BME280;20721;47.402;8.550;2023-04-07T01:47:29;96009;;;11.23;40.09
2711;BME280;20721;47.402;8.550;2023-04-07T01:48:24;96007;;;11.32;40.24
2711;BME280;20721;47.402;8.550;2023-04-07T01:49:24;96006;;;11.39;40.10
2711;BME280;20721;47.402;8.550;2023-04-07T01:50:24;96008;;;11.41;39.17
2711;BME280;20721;47.402;8.550;2023-04-07T01:51:25;96005;;;11.43;39.62
2711;BME280;20721;47.402;8.550;2023-04-07T01:52:25;96004;;;11.46;40.02
2711;BME280;20721;47.402;8.550;2023-04-07T01:53:24;96002;;;11.48;40.30
2711;BME280;20721;47.402;8.550;2023-04-07T01:54:24;96000;;;11.53;40.14
2711;BME280;20721;47.402;8.550;2023-04-07T01:55:24;95998;;;11.51;40.26
2711;BME280;20721;47.402;8.550;2023-04-07T01:56:24;95995;;;11.44;40.27
2711;BME280;20721;47.402;8.550;2023-04-07T01:57:24;95998;;;11.40;40.51
2711;BME280;20721;47.402;8.550;2023-04-07T01:58:24;96000;;;11.39;40.71
2711;BME280;20721;47.402;8.550;2023-04-07T01:59:24;95995;;;11.27;40.74
2711;BME280;20721;47.402;8.550;2023-04-07T02:00:24;95990;;;11.15;40.42
2711;BME280;20721;47.402;8.550;2023-04-07T02:01:24;95994;;;10.94;40.69
2711;BME280;20721;47.402;8.550;2023-04-07T02:02:24;95991;;;10.91;40.64
2711;BME280;20721;47.402;8.550;2023-04-07T02:03:32;95993;;;10.95;40.41
2711;BME280;20721;47.402;8.550;2023-04-07T02:04:29;95992;;;10.98;40.78
2711;BME280;20721;47.402;8.550;2023-04-07T02:05:24;95991;;;10.99;40.93
2711;BME280;20721;47.402;8.550;2023-04-07T02:06:26;95994;;;11.06;41.03
2711;BME280;20721;47.402;8.550;2023-04-07T02:07:27;95992;;;11.16;41.09
2711;BME280;20721;47.402;8.550;2023-04-07T02:08:24;95990;;;11.10;40.09
2711;BME280;20721;47.402;8.550;2023-04-07T02:09:24;95988;;;11.11;40.50
2711;BME280;20721;47.402;8.550;2023-04-07T02:10:24;95985;;;11.05;40.60
2711;BME280;20721;47.402;8.550;2023-04-07T02:11:24;95989;;;11.00;40.77
2711;BME280;20721;47.402;8.550;2023-04-07T02:12:25;95987;;;10.98;40.81
2711;BME280;20721;47.402;8.550;2023-04-07T02:13:24;95988;;;10.80;40.14
2711;BME280;20721;47.402;8.550;2023-04-07T02:14:24;95988;;;10.72;40.27
2711;BME280;20721;47.402;8.550;2023-04-07T02:15:24;95987;;;10.69;40.57
2711;BME280;20721;47.402;8.550;2023-04-07T02:16:24;95984;;;10.60;40.53
2711;BME280;20721;47.402;8.550;2023-04-07T02:17:24;95986;;;10.64;40.64
2711;BME280;20721;47.402;8.550;2023-04-07T02:18:24;95979;;;10.68;41.01
2711;BME280;20721;47.402;8.550;2023-04-07T02:19:25;95978;;;10.76;41.26
2711;BME280;20721;47.402;8.550;2023-04-07T02:20:24;95976;;;10.80;41.53
2711;BME280;20721;47.402;8.550;2023-04-07T02:21:24;95976;;;10.83;41.98
2711;BME280;20721;47.402;8.550;2023-04-07T02:22:24;95974;;;10.86;40.80
2711;BME280;20721;47.402;8.550;2023-04-07T02:23:24;95970;;;10.91;41.26
2711;BME280;20721;47.402;8.550;2023-04-07T02:24:24;95967;;;11.01;41.59
2711;BME280;20721;47.402;8.550;2023-04-07T02:25:25;95965;;;11.10;41.65
2711;BME280;20721;47.402;8.550;2023-04-07T02:26:24;95963;;;11.18;42.29
2711;BME280;20721;47.402;8.550;2023-04-07T02:27:24;95965;;;11.25;41.43
2711;BME280;20721;47.402;8.550;2023-04-07T02:28:24;95966;;;11.30;41.38
2711;BME280;20721;47.402;8.550;2023-04-07T02:29:24;95962;;;11.33;41.05
2711;BME280;20721;47.402;8.550;2023-04-07T02:30:24;95963;;;11.31;41.05
2711;BME280;20721;47.402;8.550;2023-04-07T02:31:24;95960;;;11.32;40.98
2711;BME280;20721;47.402;8.550;2023-04-07T02:32:24;95958;;;11.34;41.11
2711;BME280;20721;47.402;8.550;2023-04-07T02:33:24;95958;;;11.37;41.29
2711;BME280;20721;47.402;8.550;2023-04-07T02:34:24;95955;;;11.40;40.82
2711;BME280;20721;47.402;8.550;2023-04-07T02:35:24;95956;;;11.42;40.90
2711;BME280;20721;47.402;8.550;2023-04-07T02:36:26;95954;;;11.45;40.87
2711;BME280;20721;47.402;8.550;2023-04-07T02:37:24;95956;;;11.47;40.89
2711;BME280;20721;47.402;8.550;2023-04-07T02:38:24;95959;;;11.49;41.04
2711;BME280;20721;47.402;8.550;2023-04-07T02:39:24;95956;;;11.50;40.66
2711;BME280;20721;47.402;8.550;2023-04-07T02:40:27;95960;;;11.46;40.10
2711;BME280;20721;47.402;8.550;2023-04-07T02:41:25;95958;;;11.48;40.21
2711;BME280;20721;47.402;8.550;2023-04-07T02:42:24;95958;;;11.44;40.42
2711;BME280;20721;47.402;8.550;2023-04-07T02:43:24;95959;;;11.36;40.12
2711;BME280;20721;47.402;8.550;2023-04-07T02:44:24;95955;;;11.31;40.20
2711;BME280;20721;47.402;8.550;2023-04-07T02:45:24;95953;;;11.32;40.52
2711;BME280;20721;47.402;8.550;2023-04-07T02:46:24;95956;;;11.37;40.48
2711;BME280;20721;47.402;8.550;2023-04-07T02:47:24;95955;;;11.39;40.43
2711;BME280;20721;47.402;8.550;2023-04-07T02:48:24;95952;;;11.41;40.63
2711;BME280;20721;47.402;8.550;2023-04-07T02:49:24;95954;;;11.45;40.69
2711;BME280;20721;47.402;8.550;2023-04-07T02:50:25;95950;;;11.48;41.08
2711;BME280;20721;47.402;8.550;2023-04-07T02:51:26;95947;;;11.52;41.09
2711;BME280;20721;47.402;8.550;2023-04-07T02:52:24;95938;;;11.49;41.29
2711;BME280;20721;47.402;8.550;2023-04-07T02:53:24;95935;;;11.46;41.49
2711;BME280;20721;47.402;8.550;2023-04-07T02:54:24;95934;;;11.45;41.54
2711;BME280;20721;47.402;8.550;2023-04-07T02:55:24;95929;;;11.44;41.45
2711;BME280;20721;47.402;8.550;2023-04-07T02:56:24;95926;;;11.42;41.54
2711;BME280;20721;47.402;8.550;2023-04-07T02:57:24;95924;;;11.39;41.61
2711;BME280;20721;47.402;8.550;2023-04-07T02:58:24;95926;;;11.36;41.94
2711;BME280;20721;47.402;8.550;2023-04-07T02:59:24;95920;;;11.32;42.02
2711;BME280;20721;47.402;8.550;2023-04-07T03:00:24;95926;;;11.28;42.16
2711;BME280;20721;47.402;8.550;2023-04-07T03:01:24;95924;;;11.27;42.14
2711;BME280;20721;47.402;8.550;2023-04-07T03:02:24;95924;;;11.24;42.10
2711;BME280;20721;47.402;8.550;2023-04-07T03:03:24;95924;;;11.22;42.37
2711;BME280;20721;47.402;8.550;2023-04-07T03:04:24;95925;;;11.21;42.37
2711;BME280;20721;47.402;8.550;2023-04-07T03:05:24;95925;;;11.22;42.40
2711;BME280;20721;47.402;8.550;2023-04-07T03:07:24;95922;;;11.20;42.55
2711;BME280;20721;47.402;8.550;2023-04-07T03:08:25;95916;;;11.19;42.52
2711;BME280;20721;47.402;8.550;2023-04-07T03:10:24;95913;;;11.18;42.29
2711;BME280;20721;47.402;8.550;2023-04-07T03:11:25;95915;;;11.16;42.43
2711;BME280;20721;47.402;8.550;2023-04-07T03:12:24;95916;;;11.17;42.46
2711;BME280;20721;47.402;8.550;2023-04-07T03:14:24;95917;;;11.18;42.71
2711;BME280;20721;47.402;8.550;2023-04-07T03:15:24;95918;;;11.19;42.87
2711;BME280;20721;47.402;8.550;2023-04-07T03:18:24;95915;;;11.21;42.88
2711;BME280;20721;47.402;8.550;2023-04-07T03:20:24;95912;;;11.23;42.82
2711;BME280;20721;47.402;8.550;2023-04-07T03:21:24;95912;;;11.24;43.02
2711;BME280;20721;47.402;8.550;2023-04-07T03:22:24;95913;;;11.22;43.03
2711;BME280;20721;47.402;8.550;2023-04-07T03:23:24;95914;;;11.24;43.06
2711;BME280;20721;47.402;8.550;2023-04-07T03:24:24;95912;;;11.26;43.15
2711;BME280;20721;47.402;8.550;2023-04-07T03:25:24;95917;;;11.28;43.18
2711;BME280;20721;47.402;8.550;2023-04-07T03:26:24;95912;;;11.27;43.30
2711;BME280;20721;47.402;8.550;2023-04-07T03:27:24;95915;;;11.28;43.20
2711;BME280;20721;47.402;8.550;2023-04-07T03:28:24;95916;;;11.31;43.14
2711;BME280;20721;47.402;8.550;2023-04-07T03:29:24;95914;;;11.33;43.09
2711;BME280;20721;47.402;8.550;2023-04-07T03:31:24;95914;;;11.32;43.03
2711;BME280;20721;47.402;8.550;2023-04-07T03:32:24;95913;;;11.30;43.04
2711;BME280;20721;47.402;8.550;2023-04-07T03:33:24;95910;;;11.32;43.14
2711;BME280;20721;47.402;8.550;2023-04-07T03:34:24;95909;;;11.33;43.14
2711;BME280;20721;47.402;8.550;2023-04-07T03:35:24;95909;;;11.35;43.19
2711;BME280;20721;47.402;8.550;2023-04-07T03:36:26;95907;;;11.32;43.24
2711;BME280;20721;47.402;8.550;2023-04-07T03:37:24;95910;;;11.30;43.41
2711;BME280;20721;47.402;8.550;2023-04-07T03:38:24;95905;;;11.25;43.41
2711;BME280;20721;47.402;8.550;2023-04-07T03:39:24;95906;;;11.26;43.36
2711;BME280;20721;47.402;8.550;2023-04-07T03:41:24;95909;;;11.24;43.17
2711;BME280;20721;47.402;8.550;2023-04-07T03:42:24;95907;;;11.11;43.51
2711;BME280;20721;47.402;8.550;2023-04-07T03:43:25;95907;;;11.07;43.68
2711;BME280;20721;47.402;8.550;2023-04-07T03:44:24;95906;;;11.04;43.89
2711;BME280;20721;47.402;8.550;2023-04-07T03:45:24;95907;;;11.03;43.94
2711;BME280;20721;47.402;8.550;2023-04-07T03:46:25;95906;;;10.94;43.99
2711;BME280;20721;47.402;8.550;2023-04-07T03:47:24;95905;;;10.93;44.00
2711;BME280;20721;47.402;8.550;2023-04-07T03:48:24;95905;;;10.82;44.61
2711;BME280;20721;47.402;8.550;2023-04-07T03:49:24;95900;;;10.76;44.65
2711;BME280;20721;47.402;8.550;2023-04-07T03:50:24;95902;;;10.78;44.71
2711;BME280;20721;47.402;8.550;2023-04-07T03:51:24;95898;;;10.86;44.61
2711;BME280;20721;47.402;8.550;2023-04-07T03:52:24;95901;;;10.91;44.84
2711;BME280;20721;47.402;8.550;2023-04-07T03:53:24;95901;;;10.97;44.65
2711;BME280;20721;47.402;8.550;2023-04-07T03:54:27;95904;;;11.00;44.91
2711;BME280;20721;47.402;8.550;2023-04-07T03:55:24;95899;;;11.03;44.75
2711;BME280;20721;47.402;8.550;2023-04-07T03:56:24;95902;;;11.01;45.11
2711;BME280;20721;47.402;8.550;2023-04-07T03:58:24;95902;;;11.02;45.23
2711;BME280;20721;47.402;8.550;2023-04-07T03:59:24;95901;;;11.06;45.05
2711;BME280;20721;47.402;8.550;2023-04-07T04:00:25;95902;;;10.97;45.42
2711;BME280;20721;47.402;8.550;2023-04-07T04:01:24;95900;;;10.76;45.90
2711;BME280;20721;47.402;8.550;2023-04-07T04:02:24;95896;;;10.70;45.89
2711;BME280;20721;47.402;8.550;2023-04-07T04:03:24;95899;;;10.71;46.02
2711;BME280;20721;47.402;8.550;2023-04-07T04:04:24;95901;;;10.56;46.40
2711;BME280;20721;47.402;8.550;2023-04-07T04:05:24;95901;;;10.48;46.54
2711;BME280;20721;47.402;8.550;2023-04-07T04:06:26;95901;;;10.45;46.52
2711;BME280;20721;47.402;8.550;2023-04-07T04:07:25;95902;;;10.31;46.80
2711;BME280;20721;47.402;8.550;2023-04-07T04:08:24;95900;;;10.21;47.06
2711;BME280;20721;47.402;8.550;2023-04-07T04:09:24;95900;;;10.24;46.82
2711;BME280;20721;47.402;8.550;2023-04-07T04:10:24;95902;;;10.28;46.85
2711;BME280;20721;47.402;8.550;2023-04-07T04:11:25;95900;;;10.24;46.97
2711;BME280;20721;47.402;8.550;2023-04-07T04:12:24;95900;;;10.30;46.83
2711;BME280;20721;47.402;8.550;2023-04-07T04:13:24;95897;;;10.40;46.72
2711;BME280;20721;47.402;8.550;2023-04-07T04:14:25;95895;;;10.49;46.46
2711;BME280;20721;47.402;8.550;2023-04-07T04:15:25;95898;;;10.59;46.35
2711;BME280;20721;47.402;8.550;2023-04-07T04:16:24;95897;;;10.67;46.06
2711;BME280;20721;47.402;8.550;2023-04-07T04:17:25;95890;;;10.66;46.18
2711;BME280;20721;47.402;8.550;2023-04-07T04:18:24;95891;;;10.62;46.24
2711;BME280;20721;47.402;8.550;2023-04-07T04:20:24;95885;;;10.60;46.37
2711;BME280;20721;47.402;8.550;2023-04-07T04:21:26;95889;;;10.59;46.48
2711;BME280;20721;47.402;8.550;2023-04-07T04:22:24;95883;;;10.58;46.28
2711;BME280;20721;47.402;8.550;2023-04-07T04:23:24;95881;;;10.59;46.36
2711;BME280;20721;47.402;8.550;2023-04-07T04:24:24;95878;;;10.53;46.47
2711;BME280;20721;47.402;8.550;2023-04-07T04:25:24;95877;;;10.48;46.61
2711;BME280;20721;47.402;8.550;2023-04-07T04:26:25;95876;;;10.35;46.62
2711;BME280;20721;47.402;8.550;2023-04-07T04:27:24;95871;;;10.31;46.36
2711;BME280;20721;47.402;8.550;2023-04-07T04:28:24;95869;;;10.33;46.17
2711;BME280;20721;47.402;8.550;2023-04-07T04:29:24;95867;;;10.37;46.08
2711;BME280;20721;47.402;8.550;2023-04-07T04:30:24;95868;;;10.44;46.09
2711;BME280;20721;47.402;8.550;2023-04-07T04:31:28;95869;;;10.45;46.32
2711;BME280;20721;47.402;8.550;2023-04-07T04:32:25;95865;;;10.47;46.23
2711;BME280;20721;47.402;8.550;2023-04-07T04:33:24;95868;;;10.53;45.90
2711;BME280;20721;47.402;8.550;2023-04-07T04:34:25;95867;;;10.58;45.45
2711;BME280;20721;47.402;8.550;2023-04-07T04:35:24;95868;;;10.59;45.05
2711;BME280;20721;47.402;8.550;2023-04-07T04:36:25;95867;;;10.61;44.76
2711;BME280;20721;47.402;8.550;2023-04-07T04:37:25;95864;;;10.65;44.56
2711;BME280;20721;47.402;8.550;2023-04-07T04:42:26;95865;;;10.66;44.21
2711;BME280;20721;47.402;8.550;2023-04-07T04:45:24;95866;;;10.67;43.75
2711;BME280;20721;47.402;8.550;2023-04-07T04:46:25;95862;;;10.69;43.70
2711;BME280;20721;47.402;8.550;2023-04-07T04:47:25;95866;;;10.73;43.67
2711;BME280;20721;47.402;8.550;2023-04-07T04:48:24;95862;;;10.71;43.85
2711;BME280;20721;47.402;8.550;2023-04-07T04:49:24;95858;;;10.69;43.84
2711;BME280;20721;47.402;8.550;2023-04-07T04:50:24;95857;;;10.67;43.72
2711;BME280;20721;47.402;8.550;2023-04-07T04:51:25;95851;;;10.64;43.81
2711;BME280;20721;47.402;8.550;2023-04-07T04:52:24;95855;;;10.50;43.57
2711;BME280;20721;47.402;8.550;2023-04-07T04:53:24;95850;;;10.41;43.67
2711;BME280;20721;47.402;8.550;2023-04-07T04:54:24;95850;;;10.37;43.68
2711;BME280;20721;47.402;8.550;2023-04-07T04:55:24;95850;;;10.38;43.78
2711;BME280;20721;47.402;8.550;2023-04-07T04:57:25;95848;;;10.39;43.43
2711;BME280;20721;47.402;8.550;2023-04-07T04:58:25;95847;;;10.43;43.34
2711;BME280;20721;47.402;8.550;2023-04-07T04:59:26;95847;;;10.42;43.30
2711;BME280;20721;47.402;8.550;2023-04-07T05:03:26;95847;;;10.43;43.68
2711;BME280;20721;47.402;8.550;2023-04-07T05:04:25;95845;;;10.45;43.39
2711;BME280;20721;47.402;8.550;2023-04-07T05:05:25;95850;;;10.46;43.19
2711;BME280;20721;47.402;8.550;2023-04-07T05:06:26;95849;;;10.44;43.20
2711;BME280;20721;47.402;8.550;2023-04-07T05:07:25;95848;;;10.42;43.27
2711;BME280;20721;47.402;8.550;2023-04-07T05:08:28;95844;;;10.40;43.35
2711;BME280;20721;47.402;8.550;2023-04-07T05:09:25;95847;;;10.41;43.59
2711;BME280;20721;47.402;8.550;2023-04-07T05:10:24;95848;;;10.44;43.70
2711;BME280;20721;47.402;8.550;2023-04-07T05:11:24;95846;;;10.45;43.62
2711;BME280;20721;47.402;8.550;2023-04-07T05:13:25;95850;;;10.44;43.80
2711;BME280;20721;47.402;8.550;2023-04-07T05:14:25;95848;;;10.45;44.11
2711;BME280;20721;47.402;8.550;2023-04-07T05:15:24;95849;;;10.42;44.19
2711;BME280;20721;47.402;8.550;2023-04-07T05:16:25;95851;;;10.40;44.36
2711;BME280;20721;47.402;8.550;2023-04-07T05:17:24;95854;;;10.39;44.39
2711;BME280;20721;47.402;8.550;2023-04-07T05:18:25;95854;;;10.36;44.53
2711;BME280;20721;47.402;8.550;2023-04-07T05:19:26;95854;;;10.37;44.79
2711;BME280;20721;47.402;8.550;2023-04-07T05:20:25;95854;;;10.39;44.92
2711;BME280;20721;47.402;8.550;2023-04-07T05:21:26;95860;;;10.42;45.10
2711;BME280;20721;47.402;8.550;2023-04-07T05:22:24;95859;;;10.43;45.30
2711;BME280;20721;47.402;8.550;2023-04-07T05:23:25;95857;;;10.49;45.50
2711;BME280;20721;47.402;8.550;2023-04-07T05:24:25;95855;;;10.53;45.60
2711;BME280;20721;47.402;8.550;2023-04-07T05:26:25;95850;;;10.54;45.58
2711;BME280;20721;47.402;8.550;2023-04-07T05:27:25;95848;;;10.56;45.73
2711;BME280;20721;47.402;8.550;2023-04-07T05:29:25;95850;;;10.55;45.38
2711;BME280;20721;47.402;8.550;2023-04-07T05:30:25;95850;;;10.54;45.61
2711;BME280;20721;47.402;8.550;2023-04-07T05:31:24;95846;;;10.56;45.27
2711;BME280;20721;47.402;8.550;2023-04-07T05:33:25;95848;;;10.57;45.73
2711;BME280;20721;47.402;8.550;2023-04-07T05:34:25;95846;;;10.58;45.70
2711;BME280;20721;47.402;8.550;2023-04-07T05:35:24;95846;;;10.56;45.92
2711;BME280;20721;47.402;8.550;2023-04-07T05:36:26;95848;;;10.57;45.85
2711;BME280;20721;47.402;8.550;2023-04-07T05:37:24;95845;;;10.48;46.00
2711;BME280;20721;47.402;8.550;2023-04-07T05:38:25;95845;;;10.44;45.78
2711;BME280;20721;47.402;8.550;2023-04-07T05:39:25;95844;;;10.31;46.20
2711;BME280;20721;47.402;8.550;2023-04-07T05:40:24;95840;;;10.28;46.47
2711;BME280;20721;47.402;8.550;2023-04-07T05:42:25;95842;;;10.25;46.76
2711;BME280;20721;47.402;8.550;2023-04-07T05:43:25;95838;;;10.14;46.20
2711;BME280;20721;47.402;8.550;2023-04-07T05:44:25;95840;;;10.16;46.19
2711;BME280;20721;47.402;8.550;2023-04-07T05:46:25;95837;;;10.19;45.80
2711;BME280;20721;47.402;8.550;2023-04-07T05:49:25;95833;;;10.32;44.69
2711;BME280;20721;47.402;8.550;2023-04-07T05:50:25;95829;;;10.21;42.86
2711;BME280;20721;47.402;8.550;2023-04-07T05:51:25;95828;;;10.17;42.58
2711;BME280;20721;47.402;8.550;2023-04-07T05:52:25;95828;;;10.20;42.33
2711;BME280;20721;47.402;8.550;2023-04-07T05:53:25;95828;;;10.26;42.34
2711;BME280;20721;47.402;8.550;2023-04-07T05:54:25;95827;;;10.29;42.35
2711;BME280;20721;47.402;8.550;2023-04-07T05:55:25;95831;;;10.33;42.45
2711;BME280;20721;47.402;8.550;2023-04-07T05:56:25;95833;;;10.36;42.40
2711;BME280;20721;47.402;8.550;2023-04-07T05:57:27;95832;;;10.39;42.42
2711;BME280;20721;47.402;8.550;2023-04-07T05:58:25;95831;;;10.46;42.64
2711;BME280;20721;47.402;8.550;2023-04-07T05:59:28;95833;;;10.50;42.62
2711;BME280;20721;47.402;8.550;2023-04-07T06:00:26;95832;;;10.53;42.60
2711;BME280;20721;47.402;8.550;2023-04-07T06:01:27;95830;;;10.58;42.71
2711;BME280;20721;47.402;8.550;2023-04-07T06:02:25;95830;;;10.63;42.80
2711;BME280;20721;47.402;8.550;2023-04-07T06:03:25;95829;;;10.68;42.78
2711;BME280;20721;47.402;8.550;2023-04-07T06:04:25;95827;;;10.71;42.68
2711;BME280;20721;47.402;8.550;2023-04-07T06:05:25;95828;;;10.74;42.45
2711;BME280;20721;47.402;8.550;2023-04-07T06:06:25;95825;;;10.76;42.41
2711;BME280;20721;47.402;8.550;2023-04-07T06:07:25;95824;;;10.80;42.44
2711;BME280;20721;47.402;8.550;2023-04-07T06:08:26;95829;;;10.82;42.34
2711;BME280;20721;47.402;8.550;2023-04-07T06:09:25;95827;;;10.86;42.38
2711;BME280;20721;47.402;8.550;2023-04-07T06:10:26;95829;;;10.88;42.46
2711;BME280;20721;47.402;8.550;2023-04-07T06:11:25;95824;;;10.89;42.56
2711;BME280;20721;47.402;8.550;2023-04-07T06:12:25;95828;;;10.90;42.57
2711;BME280;20721;47.402;8.550;2023-04-07T06:13:25;95827;;;10.93;42.62
2711;BME280;20721;47.402;8.550;2023-04-07T06:14:25;95835;;;10.96;42.67
2711;BME280;20721;47.402;8.550;2023-04-07T06:15:25;95834;;;10.97;42.63
2711;BME280;20721;47.402;8.550;2023-04-07T06:16:25;95833;;;11.00;42.48
2711;BME280;20721;47.402;8.550;2023-04-07T06:17:25;95836;;;11.01;42.70
2711;BME280;20721;47.402;8.550;2023-04-07T06:18:25;95836;;;11.02;42.90
2711;BME280;20721;47.402;8.550;2023-04-07T06:19:26;95834;;;11.03;42.94